createdAt,value
2023-01-11T00:09:57.953Z,67.04
2023-01-11T00:20:01.566Z,66.39
2023-01-11T00:30:05.725Z,66.44
2023-01-11T00:40:10.121Z,66.15
2023-01-11T00:50:13.662Z,66.07
2023-01-11T01:00:19.122Z,65.87
2023-01-11T01:10:22.801Z,65.83
2023-01-11T01:20:26.727Z,65.63
2023-01-11T01:30:30.390Z,65.26
2023-01-11T01:40:43.526Z,65.16
2023-01-11T01:50:55.963Z,64.95
2023-01-11T02:01:21.524Z,65.08
2023-01-11T02:11:32.519Z,65.15
2023-01-11T02:22:25.308Z,65.20
2023-01-11T02:32:53.150Z,65.25
2023-01-11T02:43:44.703Z,65.29
2023-01-11T02:54:02.756Z,65.42
2023-01-11T03:04:06.290Z,65.59
2023-01-11T03:14:40.684Z,65.36
2023-01-11T03:24:55.918Z,65.39
2023-01-11T03:35:11.380Z,65.21
2023-01-11T03:45:15.299Z,65.20
2023-01-11T03:55:19.066Z,65.04
2023-01-11T04:05:22.854Z,65.26
2023-01-11T04:15:26.406Z,65.27
2023-01-11T04:25:30.049Z,65.16
2023-01-11T04:35:33.608Z,65.23
2023-01-11T04:45:40.444Z,65.28
2023-01-11T04:55:44.119Z,65.05
2023-01-11T05:05:59.082Z,64.85
2023-01-11T05:16:02.570Z,64.59
2023-01-11T05:26:08.901Z,64.79
2023-01-11T05:36:17.376Z,64.78
2023-01-11T05:46:22.489Z,64.77
2023-01-11T05:56:26.982Z,64.77
2023-01-11T06:06:32.967Z,65.00
2023-01-11T06:16:36.673Z,65.22
2023-01-11T06:26:40.339Z,65.41
2023-01-11T06:36:43.966Z,65.66
2023-01-11T06:46:49.159Z,65.84
2023-01-11T06:56:52.875Z,66.31
2023-01-11T07:06:56.581Z,66.57
2023-01-11T07:17:00.315Z,66.53
2023-01-11T07:27:04.028Z,66.59
2023-01-11T07:37:29.120Z,66.72
2023-01-11T07:47:33.129Z,67.04
2023-01-11T07:57:36.708Z,67.33
2023-01-11T08:07:42.410Z,67.76
2023-01-11T08:17:46.867Z,67.79
2023-01-11T08:27:50.449Z,67.96
2023-01-11T08:37:54.041Z,67.93
2023-01-11T08:47:59.823Z,67.52
2023-01-11T08:58:03.404Z,67.42
2023-01-11T09:08:09.091Z,66.97
2023-01-11T09:18:13.454Z,66.91
2023-01-11T09:28:17.593Z,66.33
2023-01-11T09:38:21.269Z,65.52
2023-01-11T09:48:44.169Z,64.53
2023-01-11T09:58:51.383Z,63.89
2023-01-11T10:19:40.709Z,63.30
2023-01-11T10:29:58.009Z,63.51
2023-01-11T10:40:30.616Z,63.16
2023-01-11T10:50:48.525Z,62.82
2023-01-11T11:01:39.927Z,62.92
2023-01-11T11:12:03.806Z,62.38
2023-01-11T11:22:12.620Z,61.41
2023-01-11T11:32:27.150Z,61.29
2023-01-11T11:42:30.848Z,61.06
2023-01-11T11:52:35.059Z,60.42
2023-01-11T12:02:50.211Z,60.22
2023-01-11T12:13:03.510Z,60.09
2023-01-11T12:23:28.349Z,60.14
2023-01-11T12:33:31.855Z,60.20
2023-01-11T12:43:43.387Z,60.35
2023-01-11T12:53:52.986Z,60.48
2023-01-11T13:04:02.415Z,60.94
2023-01-11T13:14:37.181Z,61.10
2023-01-11T13:24:45.456Z,61.49
2023-01-11T13:34:55.943Z,61.73
2023-01-11T13:45:25.345Z,61.62
2023-01-11T13:56:08.279Z,62.28
2023-01-11T14:06:53.638Z,62.61
2023-01-11T14:17:09.469Z,62.96
2023-01-11T14:27:36.960Z,63.63
2023-01-11T14:38:19.167Z,63.65
2023-01-11T14:49:44.302Z,64.11
2023-01-11T14:59:48.242Z,64.68
2023-01-11T15:09:53.956Z,64.88
2023-01-11T15:20:07.804Z,64.97
2023-01-11T15:30:30.066Z,64.88
2023-01-11T15:40:40.365Z,64.66
2023-01-11T15:51:10.951Z,64.62
2023-01-11T16:01:24.934Z,64.87
2023-01-11T16:12:06.633Z,64.93
2023-01-11T16:22:22.699Z,64.82
2023-01-11T16:32:34.713Z,64.97
2023-01-11T16:42:44.387Z,65.21
2023-01-11T16:53:12.629Z,65.16
2023-01-11T17:03:22.804Z,65.39
2023-01-11T17:25:44.822Z,64.87
2023-01-11T17:35:49.003Z,64.83
2023-01-11T17:46:00.301Z,65.21
2023-01-11T17:56:27.669Z,65.21
2023-01-11T18:06:45.460Z,65.39
2023-01-11T18:16:57.026Z,65.40
2023-01-11T19:05:59.828Z,65.90
2023-01-11T19:16:03.480Z,66.03
2023-01-11T19:26:07.261Z,65.94
2023-01-11T19:36:11.633Z,65.73
2023-01-11T19:46:30.789Z,65.51
2023-01-11T19:56:35.218Z,65.28
2023-01-11T20:06:42.017Z,65.19
2023-01-11T20:16:46.300Z,64.92
2023-01-11T20:26:50.033Z,64.75
2023-01-11T20:36:56.875Z,64.64
2023-01-11T20:47:01.402Z,64.51
2023-01-11T20:57:08.523Z,64.28
2023-01-11T21:07:12.329Z,64.30
2023-01-11T21:17:16.720Z,64.09
2023-01-11T21:27:20.323Z,63.98
2023-01-11T21:37:24.906Z,63.89
2023-01-11T21:47:28.569Z,63.90
2023-01-11T21:57:32.061Z,63.87
2023-01-11T22:07:38.448Z,64.04
2023-01-11T22:17:42.255Z,64.51
2023-01-11T22:27:45.936Z,64.69
2023-01-11T22:37:49.456Z,64.98
2023-01-11T22:47:53.040Z,65.30
2023-01-11T22:57:56.913Z,65.48
2023-01-11T23:08:00.546Z,65.36
2023-01-11T23:18:05.333Z,65.78
2023-01-11T23:28:08.867Z,66.11
2023-01-11T23:38:12.805Z,66.29
